Data for 03/23/2006

Time Sea-Level Adjusted Pressure Absolute Pressure Temperature Relative Humidity Dew Point   
(mb) (inHg) (mb) (inHg) (C) (F) (%) (C) (F)
00:05 1026 30.3 855 25.25 -0.7 30.7 79 -4 24.9
00:10 1026 30.3 855 25.25 -0.8 30.5 80 -3.9 24.9
00:15 1026 30.3 855 25.25 -0.7 30.7 79 -3.9 25
00:20 1026 30.3 855 25.25 -0.8 30.6 79 -3.9 24.9
00:25 1026 30.3 855 25.25 -0.7 30.8 78 -4 24.8
00:30 1026 30.3 855 25.25 -0.7 30.7 78 -4.1 24.6
00:35 1026 30.3 855 25.25 -0.7 30.8 77 -4.2 24.5
00:40 1026 30.3 855 25.25 -0.7 30.8 76 -4.3 24.2
00:45 1026 30.3 855 25.25 -0.5 31.1 76 -4.3 24.3
00:50 1026 30.3 855 25.25 -0.7 30.8 76 -4.5 24
00:55 1026 30.3 855 25.25 -0.9 30.4 75 -4.7 23.5
01:00 1026 30.3 855 25.25 -1.2 29.9 75 -5 23
01:05 1026 30.3 855 25.25 -1.4 29.5 76 -5.1 22.9
01:10 1026 30.3 855 25.25 -1.3 29.7 76 -5 23.1
01:15 1026 30.3 855 25.25 -1.1 29.9 76 -4.9 23.1
01:20 1026 30.3 856 25.28 -1.1 30 75 -5 22.9
01:25 1026 30.3 856 25.28 -1.1 30 75 -5 22.9
01:30 1026 30.3 855 25.25 -1.1 30.1 75 -5 23
01:35 1026 30.3 855 25.25 -1.1 30.1 75 -5 22.9
01:40 1026 30.3 855 25.25 -1.1 30 75 -5 22.9
01:45 1026 30.3 855 25.25 -1.2 29.8 74 -5.2 22.6
01:50 1026 30.3 855 25.25 -1.1 29.9 74 -5.2 22.6
01:55 1026 30.3 855 25.25 -1.2 29.8 74 -5.3 22.4
02:00 1026 30.3 855 25.25 -1.3 29.6 74 -5.4 22.3
02:05 1026 30.3 856 25.28 -1.3 29.6 74 -5.3 22.4
02:10 1026 30.3 856 25.28 -1.4 29.5 74 -5.4 22.3
02:15 1026 30.3 855 25.25 -1.3 29.6 73 -5.5 22.1
02:20 1026 30.3 855 25.25 -1.4 29.4 74 -5.5 22
02:25 1026 30.3 855 25.25 -1.6 29.2 73 -5.7 21.7
02:30 1026 30.3 856 25.28 -1.5 29.3 73 -5.7 21.8
02:35 1026 30.3 855 25.25 -1.5 29.4 73 -5.7 21.7
02:40 1026 30.3 855 25.25 -1.5 29.4 73 -5.7 21.7
02:45 1026 30.3 856 25.28 -1.5 29.3 72 -5.8 21.5
02:50 1026 30.3 856 25.28 -1.5 29.3 72 -5.9 21.4
02:55 1026 30.3 856 25.28 -1.4 29.4 71 -6.1 21
03:00 1026 30.3 856 25.28 -1.4 29.6 70 -6.1 21
03:05 1026 30.3 856 25.28 -1.3 29.6 70 -6.1 21.1
03:10 1026 30.3 856 25.28 -1.5 29.2 70 -6.3 20.7
03:15 1027 30.33 856 25.28 -1.5 29.4 70 -6.2 20.8
03:20 1027 30.33 856 25.28 -1.5 29.3 70 -6.3 20.6
03:25 1027 30.33 856 25.28 -1.3 29.7 66 -6.8 19.8
03:30 1027 30.33 856 25.28 -1.4 29.5 67 -6.8 19.8
03:35 1027 30.33 856 25.28 -1.3 29.6 68 -6.6 20.2
03:40 1027 30.33 856 25.28 -1.3 29.6 66 -6.8 19.7
03:45 1026 30.3 856 25.28 -1.3 29.7 66 -6.8 19.7
03:50 1026 30.3 856 25.28 -1.2 29.8 67 -6.6 20.1
03:55 1026 30.3 856 25.28 -1.2 29.8 67 -6.5 20.3
04:00 1026 30.3 856 25.28 -1.2 29.9 68 -6.3 20.6
04:05 1026 30.3 856 25.28 -1.3 29.6 69 -6.3 20.6
04:10 1026 30.3 856 25.28 -1.5 29.3 69 -6.4 20.5
04:15 1026 30.3 856 25.28 -1.7 28.9 69 -6.7 20
04:20 1026 30.3 856 25.28 -1.9 28.6 69 -6.9 19.6
04:25 1026 30.3 856 25.28 -2 28.4 69 -7 19.5
04:30 1026 30.3 856 25.28 -2.1 28.3 70 -6.9 19.7
04:35 1026 30.3 856 25.28 -2.6 27.3 72 -6.9 19.5
04:40 1026 30.3 856 25.28 -2.6 27.3 73 -6.9 19.6
04:45 1026 30.3 856 25.28 -2.6 27.3 73 -6.9 19.6
04:50 1026 30.3 856 25.28 -2.6 27.4 73 -6.8 19.7
04:55 1027 30.33 856 25.28 -2.6 27.3 73 -6.8 19.7
05:00 1027 30.33 856 25.28 -2.4 27.6 72 -6.8 19.8
05:05 1027 30.33 856 25.28 -2.2 28 72 -6.7 20
05:10 1027 30.33 856 25.28 -2.4 27.6 72 -6.8 19.8
05:15 1027 30.33 856 25.28 -2.4 27.7 71 -6.9 19.5
05:20 1027 30.33 856 25.28 -2.2 28.1 70 -6.9 19.6
05:25 1027 30.33 856 25.28 -2 28.4 69 -6.9 19.6
05:30 1027 30.33 856 25.28 -1.9 28.6 69 -6.9 19.5
05:35 1027 30.33 856 25.28 -1.9 28.5 68 -7 19.4
05:40 1027 30.33 856 25.28 -1.7 28.9 66 -7.3 18.9
05:45 1027 30.33 856 25.28 -1.5 29.3 67 -6.9 19.6
05:50 1027 30.33 856 25.28 -1.5 29.3 67 -6.9 19.6
05:55 1027 30.33 856 25.28 -1.4 29.5 67 -6.8 19.7
06:00 1027 30.33 856 25.28 -1.3 29.6 67 -6.7 20
06:05 1027 30.33 856 25.28 -1.5 29.3 67 -6.8 19.7
06:10 1027 30.33 856 25.28 -1.5 29.3 67 -6.9 19.6
06:15 1027 30.33 856 25.28 -1.5 29.3 66 -6.9 19.5
06:20 1027 30.33 856 25.28 -1.6 29.2 67 -6.9 19.5
06:25 1027 30.33 856 25.28 -1.7 29 68 -6.8 19.8
06:30 1027 30.33 856 25.28 -1.7 29 68 -6.8 19.8
06:35 1027 30.33 856 25.28 -1.6 29.1 68 -6.7 19.9
06:40 1027 30.33 856 25.28 -1.6 29.1 68 -6.8 19.8
06:45 1027 30.33 856 25.28 -1.6 29.1 68 -6.7 19.9
06:50 1027 30.33 856 25.28 -1.8 28.8 69 -6.7 19.9
06:55 1027 30.33 856 25.28 -2.1 28.3 70 -6.8 19.7
07:00 1027 30.33 856 25.28 -2.2 28.1 70 -7 19.5
07:05 1027 30.33 856 25.28 -2.1 28.2 70 -7 19.5
07:10 1027 30.33 856 25.28 -2.1 28.2 70 -6.9 19.5
07:15 1027 30.33 856 25.28 -2 28.5 68 -7.1 19.2
07:20 1027 30.33 856 25.28 -1.6 29.2 66 -7.2 19.1
07:25 1027 30.33 856 25.28 -1.1 30 64 -7 19.4
07:30 1027 30.33 856 25.28 -0.9 30.3 63 -7 19.4
07:35 1027 30.33 856 25.28 -0.8 30.5 63 -7 19.5
07:40 1027 30.33 856 25.28 -0.7 30.7 63 -6.9 19.5
07:45 1027 30.33 857 25.31 -0.3 31.4 61 -6.9 19.5
07:50 1027 30.33 857 25.31 -0.2 31.7 61 -6.9 19.6
07:55 1027 30.33 857 25.31 0 32 60 -6.9 19.6
08:00 1027 30.33 857 25.31 0.4 32.7 60 -6.4 20.4
08:05 1028 30.36 857 25.31 0.6 33.1 59 -6.5 20.3
08:10 1027 30.33 857 25.31 1.1 33.9 56 -6.6 20.1
08:15 1027 30.33 857 25.31 1.1 34.1 56 -6.8 19.8
08:20 1027 30.33 857 25.31 1.1 34 56 -6.7 19.9
08:25 1027 30.33 856 25.28 1.2 34.2 55 -6.8 19.8
08:30 1027 30.33 856 25.28 1.6 34.9 54 -6.8 19.8
08:35 1027 30.33 856 25.28 1.5 34.7 55 -6.6 20
08:40 1027 30.33 856 25.28 1.5 34.7 55 -6.6 20.1
08:45 1027 30.33 856 25.28 2.1 35.8 52 -6.7 19.9
08:50 1027 30.33 856 25.28 2 35.6 51 -7.2 19
08:55 1027 30.33 856 25.28 2.1 35.7 51 -7 19.4
09:00 1027 30.33 856 25.28 2.2 36 51 -6.9 19.5
09:05 1027 30.33 856 25.28 2.2 35.9 51 -6.9 19.6
09:10 1027 30.33 856 25.28 2.3 36.1 51 -6.8 19.8
09:15 1027 30.33 856 25.28 2.2 36 51 -6.9 19.5
09:20 1027 30.33 856 25.28 3 37.4 48 -6.9 19.6
09:25 1027 30.33 856 25.28 3.6 38.4 47 -6.6 20
09:30 1027 30.33 856 25.28 3.5 38.2 47 -6.9 19.6
09:35 1027 30.33 856 25.28 4.2 39.5 48 -5.8 21.6
09:40 1027 30.33 856 25.28 3.5 38.2 49 -6.1 20.9
09:45 1027 30.33 856 25.28 3.3 37.9 49 -6.3 20.6
09:50 1027 30.33 856 25.28 4.3 39.8 43 -7 19.4
09:55 1027 30.33 856 25.28 4.8 40.7 44 -6.3 20.7
10:00 1027 30.33 856 25.28 4.9 40.7 44 -6.3 20.7
10:05 1027 30.33 856 25.28 5.8 42.4 42 -6.2 20.8
10:10 1027 30.33 856 25.28 6 42.8 43 -5.8 21.6
10:15 1027 30.33 856 25.28 6.6 43.9 42 -5.4 22.3
10:20 1027 30.33 856 25.28 6.1 42.9 43 -5.5 22.1
10:25 1027 30.33 856 25.28 6.4 43.5 41 -5.8 21.5
10:30 1027 30.33 856 25.28 7 44.7 40 -5.7 21.8
10:35 1027 30.33 856 25.28 7 44.5 40 -5.7 21.8
10:40 1027 30.33 856 25.28 7 44.7 41 -5.2 22.6
10:45 1027 30.33 856 25.28 7.7 45.9 39 -5.5 22.1
10:50 1027 30.33 856 25.28 7.5 45.4 40 -5.4 22.4
10:55 1027 30.33 856 25.28 8.3 46.9 37 -5.7 21.7
11:00 1027 30.33 856 25.28 8.9 48.1 35 -5.5 22.1
11:05 1026 30.3 856 25.28 9.6 49.4 33 -5.7 21.8
11:10 1026 30.3 856 25.28 9 48.3 34 -5.9 21.4
11:15 1026 30.3 856 25.28 8.7 47.6 36 -5.5 22.1
11:20 1026 30.3 855 25.25 9 48.2 33 -6.2 20.8
11:25 1026 30.3 855 25.25 8.9 48.1 35 -5.8 21.5
11:30 1026 30.3 855 25.25 8.6 47.4 34 -6.2 20.8
11:35 1026 30.3 855 25.25 9.1 48.3 33 -6.2 20.9
11:40 1026 30.3 855 25.25 9.8 49.6 34 -5.5 22.1
11:45 1026 30.3 855 25.25 10.4 50.6 32 -5.5 22.1
11:50 1026 30.3 855 25.25 10.6 51.1 33 -4.9 23.2
11:55 1026 30.3 855 25.25 9.8 49.6 36 -4.8 23.4
12:00 1026 30.3 855 25.25 9.6 49.3 35 -4.9 23.2
12:05 1026 30.3 855 25.25 10.1 50.2 34 -4.9 23.2
12:10 1026 30.3 855 25.25 9.9 49.7 33 -5.6 21.9
12:15 1026 30.3 855 25.25 9.8 49.6 33 -5.7 21.7
12:20 1026 30.3 855 25.25 10.5 50.9 33 -5 23
12:25 1026 30.3 855 25.25 10.5 50.9 33 -5.2 22.6
12:30 1026 30.3 855 25.25 10.4 50.7 32 -5.5 22
12:35 1026 30.3 855 25.25 11.5 52.6 30 -5.3 22.5
12:40 1026 30.3 855 25.25 11.5 52.8 31 -5 23
12:45 1026 30.3 855 25.25 10.4 50.7 33 -5 22.9
12:50 1026 30.3 855 25.25 10.2 50.4 33 -5.3 22.5
12:55 1026 30.3 855 25.25 10.8 51.4 31 -5.8 21.6
13:00 1025 30.27 855 25.25 11.2 52.2 30 -5.5 22.1
13:05 1025 30.27 855 25.25 11.3 52.4 28 -6.3 20.6
13:10 1025 30.27 855 25.25 10.8 51.4 30 -6.2 20.8
13:15 1025 30.27 854 25.22 10.8 51.4 29 -6.3 20.6
13:20 1025 30.27 854 25.22 11.6 52.8 28 -6.3 20.7
13:25 1025 30.27 854 25.22 11.3 52.3 26 -7.4 18.7
13:30 1025 30.27 854 25.22 10.5 50.9 30 -6.4 20.5
13:35 1025 30.27 854 25.22 10 50.1 28 -7.5 18.5
13:40 1025 30.27 854 25.22 10 50 29 -7.1 19.2
13:45 1025 30.27 854 25.22 10.1 50.2 29 -7.2 19
13:50 1025 30.27 854 25.22 9.7 49.4 29 -7.6 18.3
13:55 1025 30.27 854 25.22 9.9 49.7 28 -7.9 17.8
14:00 1025 30.27 854 25.22 10.4 50.7 27 -7.8 17.9
14:05 1025 30.27 854 25.22 11.1 52 26 -7.7 18.2
14:10 1025 30.27 854 25.22 10.6 51.1 25 -8.6 16.6
14:15 1025 30.27 854 25.22 11.4 52.6 25 -7.9 17.8
14:20 1025 30.27 854 25.22 11.5 52.7 25 -7.7 18.2
14:25 1025 30.27 854 25.22 11.4 52.6 24 -8.5 16.8
14:30 1025 30.27 854 25.22 10.4 50.8 24 -9.1 15.7
14:35 1025 30.27 854 25.22 11.1 51.9 25 -8.4 16.9
14:40 1025 30.27 854 25.22 10.4 50.7 25 -8.8 16.2
14:45 1025 30.27 854 25.22 10.2 50.3 25 -8.8 16.1
14:50 1025 30.27 854 25.22 9.8 49.6 25 -9.2 15.5
14:55 1025 30.27 854 25.22 10.3 50.6 25 -8.9 15.9
15:00 1025 30.27 854 25.22 11 51.9 23 -9.2 15.4
15:05 1025 30.27 854 25.22 11.3 52.4 23 -8.8 16.1
15:10 1025 30.27 854 25.22 11.7 53 22 -9.1 15.6
15:15 1025 30.27 854 25.22 11.6 52.8 22 -9.3 15.2
15:20 1025 30.27 854 25.22 10.9 51.5 24 -9 15.7
15:25 1025 30.27 854 25.22 11.4 52.6 23 -8.9 16
15:30 1025 30.27 854 25.22 12.4 54.2 22 -8.8 16.1
15:35 1025 30.27 854 25.22 12.7 54.9 21 -8.9 16.1
15:40 1025 30.27 854 25.22 11.7 53 23 -8.8 16.2
15:45 1025 30.27 854 25.22 10.9 51.7 23 -9.3 15.2
15:50 1025 30.27 854 25.22 11.2 52.1 23 -9.4 15.1
15:55 1024 30.24 854 25.22 11.4 52.5 23 -8.9 16
16:00 1024 30.24 854 25.22 11.4 52.5 23 -8.9 16
16:05 1024 30.24 854 25.22 11.6 52.9 23 -8.8 16.2
16:10 1024 30.24 854 25.22 11.6 52.9 23 -8.7 16.4
16:15 1024 30.24 853 25.19 11.5 52.8 23 -8.8 16.2
16:20 1024 30.24 853 25.19 11.9 53.4 23 -8.8 16.2
16:25 1024 30.24 853 25.19 11.3 52.4 23 -9 15.8
16:30 1024 30.24 853 25.19 10.3 50.6 24 -9.3 15.2
16:35 1024 30.24 853 25.19 10.7 51.3 23 -9.4 15.1
16:40 1024 30.24 853 25.19 10.6 51.1 24 -9.2 15.4
16:45 1024 30.24 853 25.19 10.4 50.7 26 -8.3 17.1
16:50 1024 30.24 853 25.19 10.1 50.1 26 -8.4 17
16:55 1024 30.24 853 25.19 9.9 49.9 25 -9.1 15.6
17:00 1024 30.24 853 25.19 10.1 50.1 27 -8.2 17.3
17:05 1024 30.24 853 25.19 10 50 27 -8.2 17.2
17:10 1024 30.24 853 25.19 10.4 50.8 24 -9.1 15.6
17:15 1024 30.24 853 25.19 10.5 50.8 24 -9.1 15.6
17:20 1024 30.24 853 25.19 10.2 50.4 24 -9.3 15.3
17:25 1024 30.24 853 25.19 10.1 50.1 25 -9 15.8
17:30 1024 30.24 853 25.19 10.1 50.2 26 -8.3 17
17:35 1024 30.24 853 25.19 9.7 49.5 28 -8.1 17.5
17:40 1024 30.24 853 25.19 9.5 49.1 28 -8.3 17
17:45 1024 30.24 853 25.19 9.4 49 28 -8 17.6
17:50 1024 30.24 853 25.19 9.4 48.8 28 -8 17.6
17:55 1024 30.24 853 25.19 9 48.3 28 -8.3 17.1
18:00 1024 30.24 853 25.19 8.9 47.9 29 -8.2 17.2
18:05 1024 30.24 853 25.19 8.7 47.6 28 -8.7 16.4
18:10 1024 30.24 853 25.19 8.7 47.6 28 -9.1 15.7
18:15 1024 30.24 853 25.19 8.5 47.2 28 -9.1 15.6
18:20 1024 30.24 853 25.19 8.3 46.9 28 -9.3 15.2
18:25 1024 30.24 853 25.19 8.2 46.8 28 -9.4 15.2
18:30 1024 30.24 853 25.19 8.2 46.7 28 -9.4 15.1
18:35 1024 30.24 853 25.19 8.1 46.5 28 -9.5 14.8
18:40 1024 30.24 853 25.19 8 46.3 29 -9.1 15.5
18:45 1024 30.24 853 25.19 7.7 45.8 32 -8 17.6
18:50 1024 30.24 853 25.19 7.1 44.8 35 -7.4 18.7
18:55 1024 30.24 853 25.19 6.8 44.2 39 -6.1 21
19:00 1024 30.24 853 25.19 6.2 43.2 41 -6.2 20.8
19:05 1024 30.24 853 25.19 5.9 42.6 44 -5.5 22.1
19:10 1024 30.24 853 25.19 5.5 41.8 47 -4.8 23.3
19:15 1024 30.24 853 25.19 5.4 41.6 48 -4.9 23.2
19:20 1024 30.24 853 25.19 5.3 41.6 48 -4.7 23.6
19:25 1023 30.21 853 25.19 5.3 41.6 47 -5 23
19:30 1023 30.21 853 25.19 5.2 41.3 47 -5.2 22.6
19:35 1023 30.21 853 25.19 5 41 49 -4.9 23.2
19:40 1023 30.21 853 25.19 4.5 40.2 52 -4.4 24
19:45 1024 30.24 853 25.19 4.1 39.4 50 -5.4 22.3
19:50 1023 30.21 853 25.19 4.4 39.8 50 -5.2 22.7
19:55 1024 30.24 853 25.19 4.4 40 48 -5.6 22
20:00 1024 30.24 853 25.19 4.4 39.9 47 -5.9 21.3
20:05 1024 30.24 853 25.19 4.4 40 48 -5.6 22
20:10 1024 30.24 853 25.19 4.3 39.8 49 -5.4 22.3
20:15 1023 30.21 853 25.19 4.1 39.3 52 -5 23
20:20 1023 30.21 853 25.19 3.8 38.9 52 -5.2 22.7
20:25 1023 30.21 853 25.19 3.9 39 52 -5.1 22.7
20:30 1023 30.21 853 25.19 3.9 39 52 -5 22.9
20:35 1023 30.21 853 25.19 3.8 38.9 52 -5 22.9
20:40 1023 30.21 853 25.19 3.9 39 51 -5.3 22.5
20:45 1023 30.21 853 25.19 4.1 39.3 50 -5.6 22
20:50 1023 30.21 853 25.19 4.2 39.5 48 -5.9 21.4
20:55 1023 30.21 852 25.16 4.1 39.5 49 -5.7 21.8
21:00 1023 30.21 853 25.19 4.1 39.3 50 -5.4 22.3
21:05 1023 30.21 852 25.16 4 39.3 49 -5.6 21.9
21:10 1023 30.21 852 25.16 3.9 38.9 51 -5.3 22.4
21:15 1023 30.21 852 25.16 3.6 38.5 53 -5.2 22.7
21:20 1023 30.21 852 25.16 3.5 38.3 53 -5.3 22.5
21:25 1023 30.21 852 25.16 3.4 38.1 51 -5.8 21.6
21:30 1023 30.21 852 25.16 3.6 38.5 50 -5.8 21.6
21:35 1023 30.21 852 25.16 3.6 38.5 51 -5.6 22
21:40 1023 30.21 852 25.16 3.4 38.2 52 -5.4 22.2
21:45 1023 30.21 852 25.16 3.4 38 52 -5.5 22
21:50 1023 30.21 852 25.16 3.3 38 52 -5.5 22
21:55 1023 30.21 852 25.16 3.2 37.8 52 -5.7 21.7
22:00 1023 30.21 852 25.16 3.3 38 52 -5.7 21.8
22:05 1023 30.21 852 25.16 3.3 37.9 52 -5.6 22
22:10 1023 30.21 852 25.16 3.2 37.7 53 -5.5 22.1
22:15 1023 30.21 852 25.16 3.2 37.7 52 -5.7 21.7
22:20 1023 30.21 852 25.16 3.3 38 50 -6.1 21.1
22:25 1023 30.21 852 25.16 3.6 38.4 49 -6.2 20.8
22:30 1023 30.21 852 25.16 3.6 38.5 50 -6 21.3
22:35 1023 30.21 852 25.16 3.5 38.2 49 -6.2 20.8
22:40 1023 30.21 852 25.16 3.6 38.5 48 -6.4 20.5
22:45 1023 30.21 852 25.16 3.7 38.6 47 -6.5 20.3
22:50 1023 30.21 852 25.16 3.6 38.5 48 -6.3 20.6
22:55 1023 30.21 852 25.16 3.4 38.1 49 -6.4 20.5
23:00 1023 30.21 852 25.16 3.4 38.1 48 -6.6 20.2
23:05 1023 30.21 852 25.16 3.4 38.2 48 -6.6 20.1
23:10 1023 30.21 852 25.16 3.4 38.2 47 -6.7 19.9
23:15 1023 30.21 852 25.16 3.5 38.3 47 -6.7 20
23:20 1023 30.21 852 25.16 3.5 38.3 48 -6.4 20.5
23:25 1023 30.21 852 25.16 3.3 37.9 49 -6.4 20.4
23:30 1023 30.21 852 25.16 3.1 37.5 50 -6.3 20.6
23:35 1023 30.21 852 25.16 2.9 37.2 51 -6.3 20.7
23:40 1023 30.21 852 25.16 2.9 37.2 50 -6.5 20.3
23:45 1023 30.21 852 25.16 3 37.3 50 -6.3 20.6
23:50 1023 30.21 852 25.16 2.8 37.1 49 -6.7 19.9
23:55 1023 30.21 852 25.16 2.9 37.3 49 -6.7 20
24:00 1023 30.21 852 25.16 2.8 37.1 50 -6.6 20